Time;durP1;ratioP1;P1;durP2;ratioP2;P2;SDS_P1;SDS_P2;PMS_P1;PMS_P2;Temp;Humidity;BMP_temperature;BMP_pressure;BME280_temperature;BME280_humidity;BME280_pressure;Samples;Min_cycle;Max_cycle;Signal;HPM_P1;HPM_P2
2020/12/06 00:00:18;;;;;;;6.43;1.35;;;26.50;65.80;;;;;;5046240;28;20040;-84
2020/12/06 00:02:46;;;;;;;7.35;1.05;;;26.70;62.80;;;;;;5046693;28;20021;-82
2020/12/06 00:05:13;;;;;;;7.68;1.55;;;26.90;60.90;;;;;;5029049;28;20029;-82
2020/12/06 00:07:40;;;;;;;5.85;0.98;;;26.90;61.70;;;;;;5050720;28;20072;-81
2020/12/06 00:10:09;;;;;;;10.52;1.65;;;26.80;61.70;;;;;;5027183;28;20055;-85
2020/12/06 00:12:39;;;;;;;9.63;1.33;;;27.00;62.20;;;;;;5046739;28;20490;-86
2020/12/06 00:15:08;;;;;;;10.55;1.50;;;27.10;60.50;;;;;;5061610;22;20382;-87
2020/12/06 00:17:36;;;;;;;10.65;2.13;;;27.20;61.20;;;;;;5031420;28;20021;-85
2020/12/06 00:20:12;;;;;;;8.18;1.90;;;27.00;58.80;;;;;;5011510;28;20029;-85
2020/12/06 00:22:39;;;;;;;5.93;0.80;;;27.00;57.20;;;;;;5031477;28;20183;-85
2020/12/06 00:25:07;;;;;;;11.50;1.33;;;26.90;56.80;;;;;;5011749;28;20494;-88
2020/12/06 00:27:36;;;;;;;10.38;1.23;;;27.10;57.60;;;;;;5031425;28;20041;-84
2020/12/06 00:30:11;;;;;;;5.90;0.88;;;27.40;56.10;;;;;;5029085;28;20025;-86
2020/12/06 00:32:39;;;;;;;8.70;1.00;;;27.10;55.20;;;;;;5011152;28;20018;-85
2020/12/06 00:35:10;;;;;;;9.23;0.98;;;27.10;54.40;;;;;;5020981;28;20026;-87
2020/12/06 00:37:39;;;;;;;6.43;1.23;;;27.40;55.00;;;;;;5011401;28;20022;-85
2020/12/06 00:40:10;;;;;;;8.90;1.00;;;27.50;54.40;;;;;;5021111;28;20057;-87
2020/12/06 00:42:38;;;;;;;10.80;2.05;;;27.70;53.80;;;;;;5031232;28;20112;-87
2020/12/06 00:45:07;;;;;;;9.48;1.10;;;27.50;53.60;;;;;;5031406;28;20084;-88
2020/12/06 00:47:38;;;;;;;8.27;1.45;;;27.50;52.90;;;;;;5034630;28;20029;-87
2020/12/06 00:50:08;;;;;;;15.27;1.33;;;27.50;52.70;;;;;;5032475;28;20024;-82
2020/12/06 00:52:36;;;;;;;8.07;1.00;;;27.60;53.60;;;;;;5032593;28;20025;-89
2020/12/06 00:55:03;;;;;;;6.35;1.20;;;27.80;52.90;;;;;;5030233;28;20028;-87
2020/12/06 00:57:31;;;;;;;7.13;0.82;;;27.70;52.90;;;;;;5034480;28;20025;-86
2020/12/06 00:59:58;;;;;;;9.00;1.60;;;27.70;53.20;;;;;;5015115;28;20041;-85
2020/12/06 01:02:25;;;;;;;12.10;1.95;;;27.60;52.20;;;;;;5034297;28;20036;-87
2020/12/06 01:04:53;;;;;;;12.27;1.15;;;27.50;52.40;;;;;;5032853;28;20025;-85
2020/12/06 01:07:20;;;;;;;9.52;1.70;;;27.80;52.90;;;;;;5017756;28;20100;-84
2020/12/06 01:09:47;;;;;;;9.15;1.90;;;28.20;52.60;;;;;;5032337;28;20017;-85
2020/12/06 01:12:14;;;;;;;14.15;1.60;;;28.40;52.50;;;;;;5034628;28;20532;-85
2020/12/06 01:14:44;;;;;;;5.43;1.42;;;28.40;51.70;;;;;;5033026;28;20048;-87
2020/12/06 01:17:12;;;;;;;10.55;1.42;;;28.40;50.20;;;;;;5065078;22;20063;-86
2020/12/06 01:19:39;;;;;;;13.10;1.60;;;28.10;50.40;;;;;;5011385;23;20135;-84
2020/12/06 01:22:06;;;;;;;6.65;1.30;;;28.30;50.30;;;;;;5054997;28;20139;-86
2020/12/06 01:24:33;;;;;;;7.97;1.15;;;28.50;49.80;;;;;;5065534;23;20049;-88
2020/12/06 01:27:01;;;;;;;9.63;1.60;;;28.60;50.50;;;;;;5035480;28;20098;-86
2020/12/06 01:29:28;;;;;;;7.35;1.00;;;28.70;49.90;;;;;;5032863;28;20032;-87
2020/12/06 01:31:55;;;;;;;8.80;1.20;;;28.30;49.40;;;;;;5054098;28;20450;-85
2020/12/06 01:34:23;;;;;;;7.78;1.20;;;28.20;50.30;;;;;;5042501;23;20117;-87
2020/12/06 01:36:53;;;;;;;7.70;0.98;;;28.60;50.40;;;;;;5053619;28;20063;-87
2020/12/06 01:39:21;;;;;;;8.10;1.23;;;29.30;49.80;;;;;;5051947;28;20537;-87
2020/12/06 01:41:52;;;;;;;8.55;1.05;;;28.90;48.90;;;;;;5053398;28;20100;-85
2020/12/06 01:44:20;;;;;;;13.82;1.00;;;28.80;50.10;;;;;;5051017;28;20021;-83
2020/12/06 01:46:51;;;;;;;10.55;0.88;;;29.00;49.70;;;;;;5049560;28;20043;-88
2020/12/06 01:49:21;;;;;;;14.07;1.45;;;28.90;49.40;;;;;;5038118;23;20021;-87
2020/12/06 01:52:00;;;;;;;7.13;1.50;;;28.60;47.10;;;;;;5015435;28;20041;-88
2020/12/06 01:54:28;;;;;;;11.10;1.63;;;28.80;47.70;;;;;;5028019;28;20022;-88
2020/12/06 01:56:55;;;;;;;8.32;2.15;;;29.20;48.30;;;;;;5013618;28;20037;-87
2020/12/06 01:59:23;;;;;;;8.50;2.40;;;29.00;48.20;;;;;;5003879;28;20049;-88
2020/12/06 02:01:59;;;;;;;5.28;0.70;;;29.50;48.20;;;;;;4996151;28;20030;-89
2020/12/06 02:04:28;;;;;;;9.07;1.10;;;29.50;46.80;;;;;;5020091;28;20482;-87
2020/12/06 02:06:57;;;;;;;7.15;1.10;;;29.20;46.90;;;;;;5033134;28;20041;-89
2020/12/06 02:09:25;;;;;;;7.28;1.25;;;29.30;45.90;;;;;;5028187;28;20133;-87
2020/12/06 02:11:52;;;;;;;9.30;1.45;;;29.10;46.60;;;;;;5012907;28;20034;-84
2020/12/06 02:14:20;;;;;;;10.10;1.52;;;29.30;45.70;;;;;;5012136;28;20053;-84
2020/12/06 02:16:47;;;;;;;4.68;1.10;;;29.20;45.60;;;;;;5028501;28;20466;-84
2020/12/06 02:19:15;;;;;;;5.75;1.10;;;29.50;46.40;;;;;;5029206;28;20030;-86
2020/12/06 02:21:43;;;;;;;7.70;1.02;;;29.70;43.60;;;;;;5013471;28;20071;-87
2020/12/06 02:24:15;;;;;;;6.93;1.02;;;29.40;43.70;;;;;;5055263;23;20168;-84
2020/12/06 02:26:44;;;;;;;5.82;1.05;;;29.30;44.90;;;;;;5051729;28;20064;-82
2020/12/06 02:29:12;;;;;;;5.40;1.70;;;29.70;44.20;;;;;;5049651;28;20029;-81
2020/12/06 02:31:40;;;;;;;18.48;1.83;;;29.30;43.80;;;;;;5033086;28;20485;-86
2020/12/06 02:34:12;;;;;;;6.13;0.77;;;29.40;43.90;;;;;;5045422;28;20028;-87
2020/12/06 02:36:39;;;;;;;10.93;0.90;;;29.70;43.20;;;;;;5035052;28;20025;-82
2020/12/06 02:39:11;;;;;;;3.58;1.15;;;29.70;43.50;;;;;;5037882;28;20067;-83
2020/12/06 02:41:44;;;;;;;5.47;1.00;;;29.70;43.30;;;;;;5052389;28;20029;-86
2020/12/06 02:44:13;;;;;;;4.78;1.30;;;29.90;41.50;;;;;;5033801;28;20040;-85
2020/12/06 02:46:41;;;;;;;5.18;0.93;;;29.60;41.70;;;;;;5053582;28;20057;-80
2020/12/06 02:49:08;;;;;;;4.30;0.77;;;29.80;42.50;;;;;;5050833;28;20159;-76
2020/12/06 02:51:36;;;;;;;11.77;0.90;;;30.20;43.40;;;;;;5053408;28;20033;-79
2020/12/06 02:54:04;;;;;;;6.78;0.70;;;30.10;41.90;;;;;;5047711;28;20037;-85
2020/12/06 02:56:32;;;;;;;5.32;0.63;;;30.20;41.80;;;;;;5069559;28;20024;-82
2020/12/06 02:58:59;;;;;;;6.15;0.77;;;30.20;42.00;;;;;;5046909;28;20035;-85
2020/12/06 03:01:33;;;;;;;6.05;0.95;;;30.00;42.10;;;;;;5048538;28;20025;-81
2020/12/06 03:04:01;;;;;;;7.28;1.45;;;29.90;42.50;;;;;;5060137;28;20025;-84
2020/12/06 03:06:28;;;;;;;4.85;0.90;;;30.10;41.60;;;;;;5051169;28;20029;-86
2020/12/06 03:08:55;;;;;;;5.47;0.93;;;29.80;41.90;;;;;;5050215;28;20114;-84
2020/12/06 03:11:27;;;;;;;6.43;0.88;;;29.70;42.30;;;;;;5058519;28;20036;-86
2020/12/06 03:13:55;;;;;;;11.25;1.58;;;29.80;42.30;;;;;;5036943;28;20073;-86
2020/12/06 03:16:22;;;;;;;6.25;0.93;;;29.30;43.50;;;;;;5044893;28;20036;-86
2020/12/06 03:18:49;;;;;;;7.60;1.65;;;29.70;44.20;;;;;;5069434;28;20047;-89
2020/12/06 03:21:17;;;;;;;8.13;1.02;;;29.90;42.80;;;;;;5068787;28;20489;-86
2020/12/06 03:23:44;;;;;;;6.20;1.23;;;30.10;42.60;;;;;;5073389;23;20397;-87
2020/12/06 03:26:12;;;;;;;6.53;0.95;;;29.90;41.60;;;;;;5038892;23;20387;-87
2020/12/06 03:28:39;;;;;;;7.18;0.85;;;30.10;40.50;;;;;;5026880;23;20088;-85
2020/12/06 03:31:06;;;;;;;4.38;0.65;;;30.20;41.00;;;;;;5016181;28;20029;-87
2020/12/06 03:33:34;;;;;;;4.45;0.80;;;30.10;40.60;;;;;;5016372;23;20073;-86
2020/12/06 03:36:01;;;;;;;6.35;0.85;;;29.70;40.90;;;;;;4992383;28;20026;-85
2020/12/06 03:38:28;;;;;;;7.30;0.93;;;29.90;40.50;;;;;;5024178;28;20114;-88
2020/12/06 03:40:56;;;;;;;5.75;0.70;;;29.60;41.00;;;;;;5032199;23;20149;-87
2020/12/06 03:43:23;;;;;;;8.60;1.00;;;29.70;41.70;;;;;;5032309;28;20029;-90
2020/12/06 03:45:50;;;;;;;4.78;0.70;;;29.70;42.10;;;;;;5046331;28;20059;-92
2020/12/06 03:48:18;;;;;;;10.57;1.77;;;29.90;41.70;;;;;;5051370;28;20184;-89
2020/12/06 03:50:45;;;;;;;10.98;1.05;;;29.90;42.20;;;;;;5052093;28;20550;-88
2020/12/06 03:53:13;;;;;;;6.57;1.48;;;29.90;42.80;;;;;;5052442;28;20021;-86
2020/12/06 03:55:40;;;;;;;5.00;0.75;;;30.20;41.90;;;;;;5066766;28;20104;-88
2020/12/06 03:58:07;;;;;;;5.53;0.98;;;30.30;40.70;;;;;;5057078;23;20048;-88
2020/12/06 04:00:38;;;;;;;7.75;0.82;;;30.20;42.60;;;;;;5027402;28;20498;-89
2020/12/06 04:03:05;;;;;;;4.38;0.70;;;29.90;43.00;;;;;;5031699;28;20028;-88
2020/12/06 04:05:32;;;;;;;8.63;1.15;;;29.60;43.00;;;;;;5019688;28;20025;-88
2020/12/06 04:08:00;;;;;;;8.07;1.05;;;29.50;42.40;;;;;;5043970;28;20083;-86
2020/12/06 04:10:27;;;;;;;7.72;1.45;;;29.60;42.80;;;;;;5034682;28;20021;-90
2020/12/06 04:12:54;;;;;;;5.47;1.13;;;29.60;42.40;;;;;;5036789;28;20029;-86
2020/12/06 04:15:21;;;;;;;6.88;1.17;;;29.70;41.20;;;;;;5039062;28;20112;-88
2020/12/06 04:17:49;;;;;;;6.30;1.35;;;29.60;40.80;;;;;;5030439;28;20025;-88
2020/12/06 04:20:16;;;;;;;5.10;0.73;;;29.50;40.90;;;;;;5035569;28;20087;-87
2020/12/06 04:22:44;;;;;;;4.03;0.63;;;29.70;41.30;;;;;;5052030;28;20039;-89
2020/12/06 04:25:11;;;;;;;9.60;1.27;;;29.50;41.60;;;;;;5043834;28;20041;-90
2020/12/06 04:27:38;;;;;;;6.47;0.98;;;29.40;42.00;;;;;;5018695;28;20125;-87
2020/12/06 04:30:05;;;;;;;6.22;0.90;;;29.60;42.30;;;;;;5024475;28;20068;-85
2020/12/06 04:32:33;;;;;;;5.93;0.80;;;29.80;41.80;;;;;;5044521;23;20111;-88
2020/12/06 04:35:00;;;;;;;6.63;0.98;;;29.70;41.30;;;;;;5029005;28;20049;-91
2020/12/06 04:37:27;;;;;;;6.82;0.95;;;29.70;41.30;;;;;;5016559;28;20040;-85
2020/12/06 04:39:55;;;;;;;11.10;0.90;;;29.70;39.20;;;;;;5044915;28;20092;-89
2020/12/06 04:42:22;;;;;;;4.80;0.80;;;29.40;39.40;;;;;;5039966;28;20040;-87
2020/12/06 04:44:50;;;;;;;4.47;1.00;;;29.50;39.50;;;;;;5033124;28;20123;-87
2020/12/06 04:47:39;;;;;;;4.97;0.75;;;29.60;39.00;;;;;;5040395;28;20473;-87
2020/12/06 04:50:09;;;;;;;6.82;0.63;;;29.80;40.00;;;;;;5033721;28;20710;-87
2020/12/06 04:52:44;;;;;;;10.00;0.90;;;29.80;39.80;;;;;;5034393;28;20040;-89
2020/12/06 04:55:16;;;;;;;7.03;1.48;;;29.70;40.80;;;;;;5038117;28;20095;-88
2020/12/06 04:57:45;;;;;;;5.93;1.05;;;29.90;40.90;;;;;;5036024;28;20040;-91
2020/12/06 05:00:13;;;;;;;3.50;0.70;;;29.80;39.80;;;;;;5039602;28;20064;-89
2020/12/06 05:02:45;;;;;;;5.47;0.77;;;29.80;40.20;;;;;;5034516;28;20025;-89
2020/12/06 05:05:14;;;;;;;7.50;1.13;;;29.90;39.30;;;;;;5021206;28;20117;-91
2020/12/06 05:07:45;;;;;;;5.65;0.80;;;29.80;38.90;;;;;;5014493;28;20464;-86
2020/12/06 05:10:13;;;;;;;7.50;0.70;;;29.70;39.50;;;;;;5035607;28;20075;-89
2020/12/06 05:12:40;;;;;;;3.00;0.73;;;29.60;39.50;;;;;;5050310;28;20033;-87
2020/12/06 05:15:07;;;;;;;7.28;1.20;;;29.60;39.90;;;;;;5049692;28;20033;-84
2020/12/06 05:17:35;;;;;;;5.70;0.80;;;29.60;39.20;;;;;;5053678;28;20017;-90
2020/12/06 05:20:11;;;;;;;5.28;0.88;;;29.70;40.00;;;;;;5047834;28;20047;-86
2020/12/06 05:22:47;;;;;;;3.13;0.85;;;29.90;40.30;;;;;;5047549;28;20159;-84
2020/12/06 05:25:19;;;;;;;7.65;0.93;;;29.90;39.90;;;;;;5026786;28;20089;-86
2020/12/06 05:27:46;;;;;;;5.43;0.70;;;29.80;39.90;;;;;;5030603;28;20033;-88
2020/12/06 05:30:14;;;;;;;3.97;0.70;;;29.60;39.70;;;;;;5041473;28;20032;-85
2020/12/06 05:32:42;;;;;;;8.50;1.05;;;29.70;39.50;;;;;;5049923;23;20038;-85
2020/12/06 05:35:11;;;;;;;2.45;0.70;;;29.70;38.90;;;;;;5040741;22;20222;-85
2020/12/06 05:37:40;;;;;;;7.60;1.35;;;29.80;38.30;;;;;;5035036;28;20030;-89
2020/12/06 05:40:09;;;;;;;5.60;0.85;;;29.90;39.00;;;;;;5035788;23;20053;-87
2020/12/06 05:42:39;;;;;;;7.88;1.42;;;29.70;38.80;;;;;;5033783;28;20021;-88
2020/12/06 05:45:07;;;;;;;6.57;0.80;;;29.70;39.20;;;;;;5019404;28;20029;-90
2020/12/06 05:47:35;;;;;;;9.98;1.10;;;29.70;40.10;;;;;;5033484;28;20061;-88
2020/12/06 05:50:03;;;;;;;3.03;0.73;;;29.90;39.60;;;;;;5045623;23;20071;-89
2020/12/06 05:52:33;;;;;;;4.53;0.80;;;29.60;39.00;;;;;;5060881;28;20429;-88
2020/12/06 05:55:01;;;;;;;7.55;0.93;;;29.60;38.90;;;;;;5061459;28;20426;-84
2020/12/06 05:57:30;;;;;;;4.55;0.88;;;29.80;39.50;;;;;;5046385;28;20029;-86
2020/12/06 06:00:01;;;;;;;6.80;1.00;;;29.80;38.90;;;;;;5060391;28;20043;-89
2020/12/06 06:02:30;;;;;;;8.32;1.40;;;29.60;39.60;;;;;;5074445;28;20020;-88
2020/12/06 06:05:07;;;;;;;6.13;0.90;;;29.70;40.00;;;;;;5047483;23;20454;-88
2020/12/06 06:07:37;;;;;;;3.03;0.93;;;29.60;39.80;;;;;;5070419;28;20105;-91
2020/12/06 06:10:06;;;;;;;4.10;0.57;;;29.50;38.80;;;;;;5064943;28;20113;-85
2020/12/06 06:12:48;;;;;;;3.35;0.50;;;29.60;38.30;;;;;;5058513;28;20035;-86
2020/12/06 06:15:16;;;;;;;4.53;0.60;;;29.50;38.60;;;;;;5050006;28;20025;-87
2020/12/06 06:17:45;;;;;;;5.38;0.73;;;29.60;38.90;;;;;;5050251;28;20056;-88
2020/12/06 06:20:12;;;;;;;6.57;1.00;;;29.60;38.60;;;;;;5045264;28;20025;-87
2020/12/06 06:22:42;;;;;;;5.43;1.02;;;29.60;38.90;;;;;;5052512;28;20512;-89
2020/12/06 06:25:13;;;;;;;7.47;1.00;;;29.60;39.50;;;;;;5050568;28;20025;-88
2020/12/06 06:27:41;;;;;;;4.25;1.23;;;29.50;39.90;;;;;;5052295;28;20119;-85
2020/12/06 06:30:11;;;;;;;3.75;0.88;;;29.40;39.90;;;;;;5052529;28;20059;-84
2020/12/06 06:32:39;;;;;;;6.55;1.00;;;29.50;40.00;;;;;;5047237;28;20102;-86
2020/12/06 06:35:08;;;;;;;4.85;0.90;;;29.50;39.70;;;;;;5049536;28;20056;-84
2020/12/06 06:37:37;;;;;;;6.30;0.70;;;29.40;39.00;;;;;;5032675;28;20127;-81
2020/12/06 06:40:09;;;;;;;5.30;0.60;;;29.20;39.20;;;;;;5067047;23;20063;-83
2020/12/06 06:42:38;;;;;;;2.55;0.40;;;29.20;38.80;;;;;;5046131;28;20025;-87
2020/12/06 06:45:11;;;;;;;6.03;0.60;;;29.20;38.00;;;;;;5050060;28;20053;-86
2020/12/06 06:47:42;;;;;;;4.38;0.90;;;29.30;38.10;;;;;;5043768;28;20033;-85
2020/12/06 06:50:13;;;;;;;4.97;0.57;;;29.30;38.00;;;;;;5059618;28;20036;-88
2020/12/06 06:52:43;;;;;;;5.20;0.70;;;29.20;38.00;;;;;;5070886;28;20044;-90
2020/12/06 06:55:10;;;;;;;6.68;0.90;;;29.10;38.40;;;;;;5043197;28;20025;-87
2020/12/06 06:57:41;;;;;;;3.88;0.50;;;29.00;38.00;;;;;;5039713;28;20028;-88
2020/12/06 07:00:08;;;;;;;3.10;0.95;;;28.90;38.50;;;;;;5051345;28;20028;-87
2020/12/06 07:02:42;;;;;;;5.30;0.95;;;28.90;38.90;;;;;;5072161;28;20017;-87
2020/12/06 07:05:12;;;;;;;3.97;0.82;;;29.00;39.60;;;;;;5056769;28;20033;-86
2020/12/06 07:07:47;;;;;;;6.13;1.00;;;29.10;40.00;;;;;;5059233;28;20053;-91
2020/12/06 07:10:18;;;;;;;4.80;0.73;;;29.10;39.30;;;;;;5038833;28;20025;-89
2020/12/06 07:12:53;;;;;;;5.47;0.90;;;29.10;39.20;;;;;;5055225;28;20022;-85
2020/12/06 07:15:25;;;;;;;6.60;1.15;;;28.90;39.10;;;;;;5046276;28;20484;-93
2020/12/06 07:17:54;;;;;;;5.68;0.80;;;28.80;39.10;;;;;;5051203;28;20021;-89
2020/12/06 07:20:23;;;;;;;5.15;1.13;;;28.70;39.30;;;;;;5053862;28;20366;-92
2020/12/06 07:22:50;;;;;;;7.88;1.70;;;28.60;39.50;;;;;;5049171;28;20029;-91
2020/12/06 07:25:18;;;;;;;6.35;0.98;;;28.50;39.20;;;;;;5030844;28;20076;-94
2020/12/06 07:27:46;;;;;;;6.93;1.20;;;28.50;39.70;;;;;;5034116;28;20053;-87
2020/12/06 07:30:20;;;;;;;7.85;1.17;;;28.50;40.10;;;;;;5055391;28;20025;-92
2020/12/06 07:32:47;;;;;;;3.60;0.80;;;28.50;40.40;;;;;;5057695;28;20485;-89
2020/12/06 07:35:16;;;;;;;7.05;1.38;;;28.50;39.10;;;;;;5048868;28;20025;-86
2020/12/06 07:37:45;;;;;;;5.07;1.10;;;28.40;39.20;;;;;;5047011;28;20741;-85
2020/12/06 07:40:13;;;;;;;5.40;1.10;;;28.40;40.10;;;;;;5058709;23;20082;-89
2020/12/06 07:42:40;;;;;;;4.32;0.63;;;28.30;39.70;;;;;;5030772;23;20144;-88
2020/12/06 07:45:08;;;;;;;10.20;1.13;;;28.20;39.60;;;;;;5021453;28;20088;-93
2020/12/06 07:47:36;;;;;;;6.18;0.95;;;28.20;39.30;;;;;;5018730;23;20057;-88
2020/12/06 07:50:05;;;;;;;1.95;0.80;;;28.00;39.30;;;;;;5014100;28;20029;-92
2020/12/06 07:52:40;;;;;;;4.50;1.02;;;28.00;39.80;;;;;;5019293;28;20025;-90
2020/12/06 07:55:10;;;;;;;3.00;0.52;;;27.90;39.70;;;;;;5040131;28;20037;-90
2020/12/06 07:57:51;;;;;;;5.68;1.10;;;27.90;40.00;;;;;;5061134;23;20057;-89
2020/12/06 08:00:39;;;;;;;5.88;1.30;;;27.80;39.90;;;;;;5060207;28;20029;-84
2020/12/06 08:03:07;;;;;;;6.78;1.60;;;27.80;40.60;;;;;;5045829;28;20021;-90
2020/12/06 08:05:38;;;;;;;6.60;1.63;;;27.70;40.30;;;;;;5056708;28;20067;-88
2020/12/06 08:08:14;;;;;;;4.88;1.25;;;27.60;40.30;;;;;;5046576;28;20063;-88
2020/12/06 08:10:43;;;;;;;5.07;2.63;;;27.50;40.80;;;;;;5044285;28;20033;-81
2020/12/06 08:13:11;;;;;;;3.95;1.20;;;27.50;41.20;;;;;;5045333;23;20049;-87
2020/12/06 08:15:39;;;;;;;3.33;0.95;;;27.40;41.60;;;;;;5041576;28;20024;-89
2020/12/06 08:18:17;;;;;;;6.45;1.63;;;27.40;41.80;;;;;;5048179;28;20025;-86
2020/12/06 08:20:55;;;;;;;7.40;2.38;;;27.30;41.90;;;;;;5027367;28;20048;-83
2020/12/06 08:23:40;;;;;;;6.05;2.10;;;27.30;41.20;;;;;;5031571;28;20025;-90
2020/12/06 08:26:09;;;;;;;7.70;2.47;;;27.30;40.80;;;;;;5017526;28;20040;-83
2020/12/06 08:28:36;;;;;;;6.97;2.10;;;27.20;41.00;;;;;;5033621;28;20021;-82
2020/12/06 08:31:20;;;;;;;5.70;2.65;;;27.10;41.40;;;;;;5031092;28;20493;-84
2020/12/06 08:33:47;;;;;;;6.50;2.13;;;27.10;41.10;;;;;;5042082;28;20428;-82
2020/12/06 08:36:25;;;;;;;5.53;2.22;;;27.00;41.90;;;;;;5033243;28;20049;-82
2020/12/06 08:38:52;;;;;;;8.50;4.72;;;26.90;42.60;;;;;;5033087;28;20037;-84
2020/12/06 08:41:25;;;;;;;7.82;2.45;;;26.80;42.30;;;;;;5032964;28;20095;-81
2020/12/06 08:44:04;;;;;;;8.05;3.17;;;26.60;42.90;;;;;;5030668;28;20029;-82
2020/12/06 08:46:32;;;;;;;6.72;3.05;;;26.70;42.70;;;;;;5044221;23;20057;-81
2020/12/06 08:49:01;;;;;;;6.15;1.25;;;26.60;42.60;;;;;;5050248;28;20021;-83
2020/12/06 08:51:32;;;;;;;5.93;1.10;;;26.70;42.60;;;;;;5042584;28;20029;-82
2020/12/06 08:54:02;;;;;;;6.68;3.00;;;26.60;42.60;;;;;;5031188;28;20029;-81
2020/12/06 08:56:30;;;;;;;5.07;1.23;;;26.50;43.00;;;;;;5035427;28;20533;-81
2020/12/06 08:59:17;;;;;;;8.35;2.17;;;26.50;43.40;;;;;;5031780;28;20022;-82
2020/12/06 09:01:53;;;;;;;4.53;1.40;;;26.30;43.90;;;;;;5025313;28;20629;-84
2020/12/06 09:04:21;;;;;;;8.52;1.10;;;26.30;43.40;;;;;;5021356;28;20029;-86
2020/12/06 09:06:50;;;;;;;4.88;0.80;;;26.20;43.80;;;;;;5008598;28;20092;-81
2020/12/06 09:09:17;;;;;;;4.85;1.20;;;26.20;43.90;;;;;;5037442;28;20036;-85
2020/12/06 09:11:45;;;;;;;6.25;0.95;;;26.00;44.10;;;;;;5016179;28;20108;-93
2020/12/06 09:14:12;;;;;;;6.20;1.00;;;26.10;43.50;;;;;;5010086;28;20052;-89
2020/12/06 09:16:39;;;;;;;5.68;1.40;;;26.00;44.20;;;;;;5025423;28;20041;-83
2020/12/06 09:19:07;;;;;;;5.25;0.98;;;26.00;44.30;;;;;;5013049;28;20040;-81
2020/12/06 09:21:34;;;;;;;3.92;1.10;;;25.90;44.50;;;;;;5018708;28;20111;-83
2020/12/06 09:24:01;;;;;;;7.68;1.77;;;25.90;44.30;;;;;;5049684;28;20036;-86
2020/12/06 09:26:29;;;;;;;6.53;1.70;;;25.80;44.30;;;;;;5029121;28;20037;-84
2020/12/06 09:28:56;;;;;;;6.75;0.95;;;25.80;45.10;;;;;;5030472;28;20557;-85
2020/12/06 09:31:27;;;;;;;10.75;1.50;;;25.70;45.10;;;;;;5044734;28;20020;-83
2020/12/06 09:33:54;;;;;;;6.05;1.15;;;25.60;45.80;;;;;;5031008;28;20037;-81
2020/12/06 09:36:22;;;;;;;3.70;1.33;;;25.50;45.70;;;;;;5040916;28;20047;-82
2020/12/06 09:38:49;;;;;;;3.08;0.77;;;25.50;46.20;;;;;;5049708;28;20029;-83
2020/12/06 09:41:17;;;;;;;6.57;1.80;;;25.50;46.10;;;;;;5051436;28;20030;-79
2020/12/06 09:43:45;;;;;;;8.25;1.60;;;25.40;46.50;;;;;;5051818;28;20029;-83
2020/12/06 09:46:15;;;;;;;2.90;0.80;;;25.30;46.70;;;;;;5041654;28;20048;-88
2020/12/06 09:48:42;;;;;;;6.50;1.40;;;25.40;45.50;;;;;;5093437;22;20076;-86
2020/12/06 09:51:10;;;;;;;4.00;0.82;;;25.30;46.50;;;;;;5051046;23;20144;-83
2020/12/06 09:53:38;;;;;;;4.22;0.88;;;25.20;46.20;;;;;;5036111;28;20505;-88
2020/12/06 09:56:05;;;;;;;8.70;1.00;;;25.20;46.70;;;;;;5038483;23;20072;-85
2020/12/06 09:58:33;;;;;;;5.45;1.17;;;25.10;46.70;;;;;;5032919;28;20018;-85
2020/12/06 10:01:00;;;;;;;7.10;1.10;;;25.00;46.60;;;;;;5032642;28;20038;-86
2020/12/06 10:03:28;;;;;;;5.40;1.40;;;25.00;46.60;;;;;;5033665;23;20502;-86
2020/12/06 10:05:55;;;;;;;5.30;0.68;;;24.90;46.90;;;;;;5012523;28;20521;-85
2020/12/06 10:08:22;;;;;;;3.67;1.23;;;24.90;46.70;;;;;;5032322;28;20033;-88
2020/12/06 10:10:50;;;;;;;4.05;0.95;;;24.80;47.00;;;;;;5031588;28;20171;-87
2020/12/06 10:13:21;;;;;;;2.90;1.00;;;24.80;46.30;;;;;;5032531;28;20044;-84
2020/12/06 10:15:48;;;;;;;6.35;1.17;;;24.80;46.60;;;;;;5034890;28;20013;-84
2020/12/06 10:18:15;;;;;;;7.85;1.52;;;24.80;46.30;;;;;;5052029;28;20166;-85
2020/12/06 10:20:43;;;;;;;7.97;0.90;;;24.80;46.60;;;;;;5067614;23;20140;-84
2020/12/06 10:23:10;;;;;;;7.88;1.77;;;24.70;46.80;;;;;;5051869;28;20520;-88
2020/12/06 10:25:37;;;;;;;5.85;1.38;;;24.60;47.30;;;;;;5051891;28;20032;-84
2020/12/06 10:28:05;;;;;;;7.55;1.65;;;24.50;47.40;;;;;;5052628;28;20033;-86
2020/12/06 10:30:32;;;;;;;7.10;2.20;;;24.50;47.10;;;;;;5033833;28;20029;-84
2020/12/06 10:32:59;;;;;;;6.35;1.25;;;24.50;47.20;;;;;;5048518;28;20071;-85
2020/12/06 10:35:27;;;;;;;7.43;1.13;;;24.40;47.40;;;;;;5032049;28;20033;-83
2020/12/06 10:37:54;;;;;;;6.72;1.35;;;24.30;47.70;;;;;;5051905;28;20440;-82
2020/12/06 10:40:21;;;;;;;3.83;0.80;;;24.30;47.20;;;;;;5052114;28;20032;-82
2020/12/06 10:42:48;;;;;;;6.18;1.17;;;24.30;47.30;;;;;;5032453;28;20029;-87
2020/12/06 10:45:16;;;;;;;6.07;1.23;;;24.20;47.40;;;;;;5032137;28;20028;-85
2020/12/06 10:47:45;;;;;;;5.65;1.17;;;24.20;47.50;;;;;;5051000;28;20053;-87
2020/12/06 10:50:12;;;;;;;5.22;1.38;;;24.20;47.50;;;;;;5051019;28;20108;-87
2020/12/06 10:52:39;;;;;;;7.20;1.45;;;24.10;47.90;;;;;;5051825;28;20033;-86
2020/12/06 10:55:07;;;;;;;5.30;1.23;;;24.00;47.90;;;;;;5064840;23;20060;-85
2020/12/06 10:57:34;;;;;;;6.72;1.50;;;24.00;47.70;;;;;;5040082;28;20047;-85
2020/12/06 11:00:01;;;;;;;4.85;0.88;;;23.90;47.70;;;;;;5035367;28;20029;-86
2020/12/06 11:02:29;;;;;;;7.50;0.80;;;23.90;47.70;;;;;;5041948;28;20023;-86
2020/12/06 11:04:56;;;;;;;3.97;0.93;;;23.80;47.80;;;;;;5036637;28;20056;-85
2020/12/06 11:07:23;;;;;;;4.75;0.68;;;23.80;47.70;;;;;;5049599;28;20033;-86
2020/12/06 11:09:51;;;;;;;4.78;1.08;;;23.70;48.20;;;;;;5048074;28;20032;-86
2020/12/06 11:12:18;;;;;;;3.60;0.75;;;23.70;47.90;;;;;;5035969;28;20021;-84
2020/12/06 11:14:45;;;;;;;5.38;0.90;;;23.70;47.80;;;;;;5051266;28;20052;-86
2020/12/06 11:17:13;;;;;;;8.18;1.50;;;23.70;47.70;;;;;;5047848;28;20033;-86
2020/12/06 11:19:40;;;;;;;5.57;0.95;;;23.60;48.10;;;;;;5040817;28;20021;-86
2020/12/06 11:22:07;;;;;;;5.07;0.77;;;23.50;48.20;;;;;;5050675;28;20036;-84
2020/12/06 11:24:36;;;;;;;6.03;1.27;;;23.60;47.80;;;;;;5048828;28;20029;-85
2020/12/06 11:27:03;;;;;;;5.47;1.13;;;23.50;48.00;;;;;;5046265;28;20044;-85
2020/12/06 11:29:30;;;;;;;6.25;1.48;;;23.50;48.00;;;;;;5046578;28;20024;-85
2020/12/06 11:31:58;;;;;;;5.63;1.17;;;23.40;48.20;;;;;;5036912;28;20426;-84
2020/12/06 11:34:25;;;;;;;4.88;1.10;;;23.40;48.20;;;;;;5049040;28;20021;-86
2020/12/06 11:36:52;;;;;;;4.68;0.90;;;23.40;48.40;;;;;;5051605;28;20021;-87
2020/12/06 11:39:20;;;;;;;9.40;1.52;;;23.30;48.90;;;;;;5026937;28;20037;-86
2020/12/06 11:41:47;;;;;;;4.97;1.50;;;23.30;49.30;;;;;;5017113;28;20180;-86
2020/12/06 11:44:14;;;;;;;3.35;0.70;;;23.20;49.80;;;;;;5040764;28;20032;-87
2020/12/06 11:46:44;;;;;;;6.32;1.20;;;23.10;49.80;;;;;;5045522;28;20025;-85
2020/12/06 11:49:12;;;;;;;4.45;1.42;;;23.10;50.20;;;;;;5051242;28;20028;-86
2020/12/06 11:51:39;;;;;;;5.40;1.02;;;23.10;50.20;;;;;;5049885;28;20033;-85
2020/12/06 11:54:06;;;;;;;5.63;1.30;;;23.00;50.70;;;;;;5051669;23;20092;-86
2020/12/06 11:56:35;;;;;;;6.43;1.55;;;23.00;50.60;;;;;;5024397;23;20546;-86
2020/12/06 11:59:02;;;;;;;5.85;0.75;;;22.90;50.80;;;;;;5018643;23;20045;-85
2020/12/06 12:01:30;;;;;;;4.65;0.75;;;22.80;50.90;;;;;;5004480;28;20022;-87
2020/12/06 12:03:57;;;;;;;8.60;1.10;;;22.90;51.10;;;;;;5026324;23;20061;-86
2020/12/06 12:06:24;;;;;;;6.78;1.00;;;22.70;51.30;;;;;;5011456;28;20033;-86
2020/12/06 12:08:52;;;;;;;5.45;0.90;;;22.70;51.70;;;;;;5010323;28;20054;-86
2020/12/06 12:11:20;;;;;;;6.50;1.10;;;22.60;51.60;;;;;;5024464;23;20080;-86
2020/12/06 12:13:48;;;;;;;5.20;1.58;;;22.70;51.80;;;;;;5033776;28;20112;-85
2020/12/06 12:16:15;;;;;;;7.28;1.13;;;22.60;52.50;;;;;;5050329;28;20025;-85
2020/12/06 12:18:43;;;;;;;6.57;1.40;;;22.50;52.20;;;;;;5013004;28;20026;-86
2020/12/06 12:21:10;;;;;;;6.05;1.08;;;22.50;52.20;;;;;;5010916;28;20018;-86
2020/12/06 12:23:37;;;;;;;6.45;1.50;;;22.50;51.90;;;;;;5009901;28;20037;-86
2020/12/06 12:26:05;;;;;;;12.82;2.25;;;22.50;52.30;;;;;;5023886;28;20022;-86
2020/12/06 12:28:32;;;;;;;5.68;1.20;;;22.30;52.70;;;;;;5043074;23;20056;-86
2020/12/06 12:30:59;;;;;;;5.80;1.38;;;22.30;52.60;;;;;;5050704;28;20021;-86
2020/12/06 12:33:27;;;;;;;4.80;1.30;;;22.20;53.20;;;;;;5049567;28;20036;-86
2020/12/06 12:35:54;;;;;;;6.57;1.13;;;22.20;53.20;;;;;;5048175;28;20034;-85
2020/12/06 12:38:21;;;;;;;7.35;1.10;;;22.10;53.90;;;;;;5049958;28;20044;-86
2020/12/06 12:40:49;;;;;;;4.90;1.15;;;22.10;53.90;;;;;;5052484;28;20029;-86
2020/12/06 12:43:16;;;;;;;7.97;1.45;;;22.00;54.30;;;;;;5053838;28;20532;-85
2020/12/06 12:45:44;;;;;;;4.40;0.80;;;22.00;53.70;;;;;;5053757;28;20382;-86
2020/12/06 12:48:11;;;;;;;6.13;1.65;;;22.00;53.50;;;;;;5053378;28;20033;-85
2020/12/06 12:50:38;;;;;;;5.47;0.93;;;22.00;52.90;;;;;;5053316;28;20031;-86
2020/12/06 12:53:05;;;;;;;6.00;1.20;;;22.00;53.20;;;;;;5037675;28;20040;-86